Time;durP1;ratioP1;P1;durP2;ratioP2;P2;SDS_P1;SDS_P2;PMS_P1;PMS_P2;Temp;Humidity;BMP_temperature;BMP_pressure;BME280_temperature;BME280_humidity;BME280_pressure;Samples;Min_cycle;Max_cycle;Signal;HPM_P1;HPM_P2
2023/08/20 00:02:26;;;;;;;10.73;5.82;;;;;;;;;;5051933;28;20068;-63
2023/08/20 00:04:57;;;;;;;10.27;5.68;;;;;;;;;;5052212;28;20491;-63
2023/08/20 00:07:24;;;;;;;10.35;5.50;;;;;;;;;;5051916;28;20052;-63
2023/08/20 00:09:52;;;;;;;11.85;5.80;;;;;;;;;;5052269;28;20402;-63
2023/08/20 00:12:20;;;;;;;10.02;5.80;;;;;;;;;;5051908;28;20045;-62
2023/08/20 00:15:07;;;;;;;9.48;5.80;;;;;;;;;;5069941;28;20036;-62
2023/08/20 00:17:39;;;;;;;11.38;5.82;;;;;;;;;;5071999;28;20052;-62
2023/08/20 00:20:12;;;;;;;7.72;5.18;;;;;;;;;;5072036;28;20041;-62
2023/08/20 00:22:42;;;;;;;10.80;5.93;;;;;;;;;;5071963;28;20552;-62
2023/08/20 00:25:10;;;;;;;9.50;5.95;;;;;;;;;;5071902;28;20098;-62
2023/08/20 00:27:37;;;;;;;8.35;5.25;;;;;;;;;;5071726;28;20044;-62
2023/08/20 00:30:05;;;;;;;11.68;5.85;;;;;;;;;;5053963;28;20044;-62
2023/08/20 00:32:33;;;;;;;11.93;6.00;;;;;;;;;;5056880;28;20052;-62
2023/08/20 00:35:01;;;;;;;8.68;5.88;;;;;;;;;;5057372;28;20402;-62
2023/08/20 00:37:29;;;;;;;8.80;5.40;;;;;;;;;;5075485;28;20131;-62
2023/08/20 00:39:59;;;;;;;9.73;6.45;;;;;;;;;;5057759;28;20043;-62
2023/08/20 00:42:27;;;;;;;10.73;6.30;;;;;;;;;;5075370;28;20486;-62
2023/08/20 00:44:55;;;;;;;9.48;5.55;;;;;;;;;;5057494;28;20036;-62
2023/08/20 00:47:22;;;;;;;9.57;6.25;;;;;;;;;;5057049;28;20051;-62
2023/08/20 00:49:50;;;;;;;9.57;6.20;;;;;;;;;;5057363;28;20098;-62
2023/08/20 00:52:18;;;;;;;12.60;6.20;;;;;;;;;;5057248;28;20048;-62
2023/08/20 00:54:46;;;;;;;8.70;6.10;;;;;;;;;;5074926;28;20037;-62
2023/08/20 00:57:20;;;;;;;8.93;5.85;;;;;;;;;;5057191;28;20041;-62
2023/08/20 00:59:51;;;;;;;11.02;6.07;;;;;;;;;;5074991;28;20075;-62
2023/08/20 01:02:20;;;;;;;10.27;6.20;;;;;;;;;;5075023;28;20036;-62
2023/08/20 01:04:48;;;;;;;10.52;6.32;;;;;;;;;;5056983;28;20048;-62
2023/08/20 01:07:19;;;;;;;9.27;6.05;;;;;;;;;;5057160;28;20127;-62
2023/08/20 01:09:46;;;;;;;10.13;6.45;;;;;;;;;;5057146;28;20036;-62
2023/08/20 01:12:14;;;;;;;9.57;5.65;;;;;;;;;;5056916;28;20521;-62
2023/08/20 01:14:42;;;;;;;10.95;6.55;;;;;;;;;;5057210;28;20033;-62
2023/08/20 01:17:09;;;;;;;10.82;6.03;;;;;;;;;;5056535;28;20036;-63
2023/08/20 01:19:38;;;;;;;8.60;5.88;;;;;;;;;;5074620;28;20059;-63
2023/08/20 01:22:22;;;;;;;9.82;6.40;;;;;;;;;;5057168;28;20074;-63
2023/08/20 01:25:09;;;;;;;9.55;6.13;;;;;;;;;;5040294;28;20051;-62
2023/08/20 01:27:37;;;;;;;10.65;6.18;;;;;;;;;;5056589;28;20052;-63
2023/08/20 01:30:05;;;;;;;13.38;6.97;;;;;;;;;;5074584;28;20504;-62
2023/08/20 01:32:33;;;;;;;9.15;6.82;;;;;;;;;;5056306;28;20135;-62
2023/08/20 01:35:01;;;;;;;9.38;5.90;;;;;;;;;;5056234;28;20040;-62
2023/08/20 01:37:28;;;;;;;10.30;6.32;;;;;;;;;;5056237;28;20056;-62
2023/08/20 01:39:56;;;;;;;10.88;6.68;;;;;;;;;;5056418;28;20043;-63
2023/08/20 01:42:23;;;;;;;8.05;5.80;;;;;;;;;;5055584;28;20053;-63
2023/08/20 01:44:52;;;;;;;10.23;6.15;;;;;;;;;;5074244;28;20115;-63
2023/08/20 01:47:20;;;;;;;10.23;6.40;;;;;;;;;;5056745;28;20445;-63
2023/08/20 01:49:47;;;;;;;11.85;6.40;;;;;;;;;;5074773;28;20101;-63
2023/08/20 01:52:15;;;;;;;10.88;6.43;;;;;;;;;;5074068;28;20048;-62
2023/08/20 01:54:43;;;;;;;13.48;6.82;;;;;;;;;;5074230;28;20051;-63
2023/08/20 01:57:11;;;;;;;12.05;6.43;;;;;;;;;;5055963;28;20052;-63
2023/08/20 01:59:39;;;;;;;11.00;6.60;;;;;;;;;;5055840;28;20090;-62
2023/08/20 02:02:07;;;;;;;10.75;6.53;;;;;;;;;;5055750;28;20045;-62
2023/08/20 02:04:34;;;;;;;10.15;6.45;;;;;;;;;;5055792;28;20036;-63
2023/08/20 02:07:02;;;;;;;11.23;7.10;;;;;;;;;;5055904;28;20045;-63
2023/08/20 02:09:29;;;;;;;8.32;6.45;;;;;;;;;;5039149;28;20040;-63
2023/08/20 02:11:57;;;;;;;9.32;6.47;;;;;;;;;;5055750;28;20044;-63
2023/08/20 02:14:26;;;;;;;11.80;6.82;;;;;;;;;;5055779;28;20090;-63
2023/08/20 02:16:54;;;;;;;10.75;6.50;;;;;;;;;;5055712;28;20045;-63
2023/08/20 02:19:22;;;;;;;11.85;6.18;;;;;;;;;;5073404;28;20049;-62
2023/08/20 02:21:49;;;;;;;11.48;6.75;;;;;;;;;;5055440;28;20098;-63
2023/08/20 02:24:17;;;;;;;9.43;6.32;;;;;;;;;;5055469;28;20119;-63
2023/08/20 02:26:44;;;;;;;9.65;6.97;;;;;;;;;;5055442;28;20052;-62
2023/08/20 02:29:12;;;;;;;10.55;6.57;;;;;;;;;;5055381;28;20504;-62
2023/08/20 02:31:39;;;;;;;11.90;6.65;;;;;;;;;;5073508;28;20045;-63
2023/08/20 02:34:08;;;;;;;10.63;6.65;;;;;;;;;;5055385;28;20093;-63
2023/08/20 02:36:36;;;;;;;14.30;7.05;;;;;;;;;;5072977;28;20097;-63
2023/08/20 02:39:07;;;;;;;9.77;6.72;;;;;;;;;;5073105;28;20091;-63
2023/08/20 02:41:38;;;;;;;11.15;6.93;;;;;;;;;;5073651;28;20052;-63
2023/08/20 02:44:06;;;;;;;11.05;6.93;;;;;;;;;;5055030;28;20044;-63
2023/08/20 02:46:33;;;;;;;12.18;6.88;;;;;;;;;;5055022;28;20044;-63
2023/08/20 02:49:01;;;;;;;9.63;7.25;;;;;;;;;;5054836;28;20047;-62
2023/08/20 02:51:28;;;;;;;7.88;6.45;;;;;;;;;;5072951;28;20037;-62
2023/08/20 02:53:56;;;;;;;13.40;6.97;;;;;;;;;;5072843;28;20123;-62
2023/08/20 02:56:23;;;;;;;9.48;6.28;;;;;;;;;;5054972;28;20055;-61
2023/08/20 02:58:51;;;;;;;10.40;6.75;;;;;;;;;;5054957;28;20044;-62
2023/08/20 03:01:19;;;;;;;9.88;6.88;;;;;;;;;;5054771;28;20384;-63
2023/08/20 03:03:47;;;;;;;8.77;7.28;;;;;;;;;;5054674;28;20071;-63
2023/08/20 03:06:15;;;;;;;11.02;6.43;;;;;;;;;;5055233;28;20051;-63
2023/08/20 03:08:42;;;;;;;10.23;6.88;;;;;;;;;;5054609;28;20387;-62
2023/08/20 03:11:10;;;;;;;12.57;7.20;;;;;;;;;;5054778;28;20052;-63
2023/08/20 03:13:37;;;;;;;11.55;7.60;;;;;;;;;;5072529;28;20033;-63
2023/08/20 03:16:05;;;;;;;10.23;6.70;;;;;;;;;;5054513;28;20474;-63
2023/08/20 03:18:32;;;;;;;12.65;7.18;;;;;;;;;;5054220;28;20043;-62
2023/08/20 03:21:00;;;;;;;9.95;7.00;;;;;;;;;;5054512;28;20059;-62
2023/08/20 03:23:28;;;;;;;10.38;6.55;;;;;;;;;;5054443;28;20049;-63
2023/08/20 03:25:58;;;;;;;11.77;7.15;;;;;;;;;;5054371;28;20041;-63
2023/08/20 03:28:26;;;;;;;12.48;6.70;;;;;;;;;;5072488;28;20045;-63
2023/08/20 03:30:53;;;;;;;9.40;7.25;;;;;;;;;;5054104;28;20083;-63
2023/08/20 03:33:26;;;;;;;9.35;7.03;;;;;;;;;;5054484;28;20048;-64
2023/08/20 03:35:54;;;;;;;12.88;7.60;;;;;;;;;;5054253;28;20060;-63
2023/08/20 03:38:26;;;;;;;8.13;6.90;;;;;;;;;;5054159;28;20049;-63
2023/08/20 03:40:56;;;;;;;13.13;7.50;;;;;;;;;;5054745;28;20040;-63
2023/08/20 03:43:25;;;;;;;10.27;6.97;;;;;;;;;;5072084;28;20107;-63
2023/08/20 03:45:54;;;;;;;12.20;7.47;;;;;;;;;;5054367;28;20045;-63
2023/08/20 03:48:21;;;;;;;13.05;7.00;;;;;;;;;;5054268;28;20090;-63
2023/08/20 03:50:49;;;;;;;12.88;7.60;;;;;;;;;;5054298;28;20080;-62
2023/08/20 03:53:17;;;;;;;17.60;9.02;;;;;;;;;;5072024;28;20116;-63
2023/08/20 03:55:48;;;;;;;9.23;7.03;;;;;;;;;;5054295;28;20048;-63
2023/08/20 03:58:16;;;;;;;12.10;7.72;;;;;;;;;;5054157;28;20053;-63
2023/08/20 04:00:44;;;;;;;12.90;7.50;;;;;;;;;;5054062;28;20110;-64
2023/08/20 04:03:11;;;;;;;12.82;7.80;;;;;;;;;;5054385;28;20374;-63
2023/08/20 04:05:39;;;;;;;10.27;6.93;;;;;;;;;;5072184;28;20047;-63
2023/08/20 04:08:07;;;;;;;13.15;7.60;;;;;;;;;;5058376;28;20139;-63
2023/08/20 04:10:34;;;;;;;12.65;7.85;;;;;;;;;;5058199;28;20043;-63
2023/08/20 04:13:02;;;;;;;11.75;7.72;;;;;;;;;;5075084;28;20391;-63
2023/08/20 04:15:30;;;;;;;10.82;7.55;;;;;;;;;;5055290;28;20048;-63
2023/08/20 04:17:58;;;;;;;11.80;7.63;;;;;;;;;;5057853;28;20079;-62
2023/08/20 04:20:26;;;;;;;14.63;7.57;;;;;;;;;;5038581;28;20041;-62
2023/08/20 04:22:54;;;;;;;9.88;7.28;;;;;;;;;;5037940;28;20049;-63
2023/08/20 04:25:23;;;;;;;13.43;7.60;;;;;;;;;;5037900;28;20045;-63
2023/08/20 04:27:51;;;;;;;12.18;7.45;;;;;;;;;;5037963;28;20087;-63
2023/08/20 04:30:18;;;;;;;15.15;7.95;;;;;;;;;;5037761;28;20103;-63
2023/08/20 04:32:46;;;;;;;11.55;7.70;;;;;;;;;;5034604;28;20030;-64
2023/08/20 04:35:14;;;;;;;10.65;7.15;;;;;;;;;;5039353;28;20171;-63
2023/08/20 04:37:42;;;;;;;10.20;7.50;;;;;;;;;;5030921;28;20056;-63
2023/08/20 04:40:10;;;;;;;18.25;7.63;;;;;;;;;;5031157;28;20045;-64
2023/08/20 04:42:38;;;;;;;10.25;7.20;;;;;;;;;;5034515;28;20036;-63
2023/08/20 04:45:06;;;;;;;13.90;7.80;;;;;;;;;;5051436;28;20135;-63
2023/08/20 04:47:35;;;;;;;12.13;7.93;;;;;;;;;;5051685;28;20043;-63
2023/08/20 04:50:06;;;;;;;13.13;7.75;;;;;;;;;;5026878;28;20063;-64
2023/08/20 04:52:34;;;;;;;12.68;7.63;;;;;;;;;;5047121;28;20478;-63
2023/08/20 04:55:02;;;;;;;12.02;7.72;;;;;;;;;;5051443;28;20036;-63
2023/08/20 04:57:29;;;;;;;11.30;7.30;;;;;;;;;;5051131;28;20051;-63
2023/08/20 04:59:57;;;;;;;10.32;7.43;;;;;;;;;;5051623;28;20052;-64
2023/08/20 05:02:37;;;;;;;12.20;8.07;;;;;;;;;;5051753;28;20414;-63
2023/08/20 05:05:06;;;;;;;9.20;6.88;;;;;;;;;;5068747;28;20055;-63
2023/08/20 05:07:34;;;;;;;11.23;7.35;;;;;;;;;;5039518;28;20049;-63
2023/08/20 05:10:02;;;;;;;10.15;7.78;;;;;;;;;;5050000;28;20040;-64
2023/08/20 05:12:30;;;;;;;12.27;8.00;;;;;;;;;;5051759;28;20086;-64
2023/08/20 05:14:57;;;;;;;12.05;7.40;;;;;;;;;;5051362;28;20139;-63
2023/08/20 05:17:25;;;;;;;14.18;8.95;;;;;;;;;;5050023;28;20139;-63
2023/08/20 05:19:52;;;;;;;21.98;13.57;;;;;;;;;;5035041;28;20487;-64
2023/08/20 05:22:20;;;;;;;17.65;11.10;;;;;;;;;;5050935;28;20068;-63
2023/08/20 05:24:48;;;;;;;16.58;9.57;;;;;;;;;;5048895;28;20033;-63
2023/08/20 05:27:19;;;;;;;13.30;8.05;;;;;;;;;;5033369;28;20142;-64
2023/08/20 05:29:50;;;;;;;;;;;;;;;;;;5031616;28;20657;-64
2023/08/20 05:32:18;;;;;;;11.10;7.57;;;;;;;;;;5031032;28;19928;-64
2023/08/20 05:34:47;;;;;;;11.20;7.90;;;;;;;;;;5040836;28;20556;-64
2023/08/20 05:37:14;;;;;;;11.98;7.60;;;;;;;;;;5031096;28;20106;-64
2023/08/20 05:39:43;;;;;;;11.80;7.45;;;;;;;;;;5031159;28;20044;-64
2023/08/20 05:42:11;;;;;;;15.95;7.82;;;;;;;;;;5057919;28;20502;-64
2023/08/20 05:44:42;;;;;;;14.77;7.10;;;;;;;;;;5044096;28;20092;-64
2023/08/20 05:47:13;;;;;;;14.43;7.70;;;;;;;;;;5042125;28;20071;-64
2023/08/20 05:49:41;;;;;;;10.50;7.25;;;;;;;;;;5035150;28;20041;-64
2023/08/20 05:52:08;;;;;;;12.32;7.38;;;;;;;;;;5050571;28;20043;-64
2023/08/20 05:54:37;;;;;;;14.88;7.35;;;;;;;;;;5050670;28;20418;-64
2023/08/20 05:57:04;;;;;;;14.32;7.22;;;;;;;;;;5030605;28;20080;-64
2023/08/20 05:59:32;;;;;;;11.40;7.35;;;;;;;;;;5046836;28;20098;-64
2023/08/20 06:02:02;;;;;;;10.60;7.30;;;;;;;;;;5057082;28;20068;-64
2023/08/20 06:04:30;;;;;;;12.50;7.10;;;;;;;;;;5067901;28;20047;-64
2023/08/20 06:06:57;;;;;;;9.95;6.85;;;;;;;;;;5068506;28;20090;-63
2023/08/20 06:09:25;;;;;;;9.23;7.40;;;;;;;;;;5068040;28;20088;-63
2023/08/20 06:11:53;;;;;;;11.50;7.15;;;;;;;;;;5068109;28;20379;-63
2023/08/20 06:14:20;;;;;;;13.15;7.80;;;;;;;;;;5068301;28;20115;-63
2023/08/20 06:16:48;;;;;;;11.82;7.80;;;;;;;;;;5068078;28;20036;-63
2023/08/20 06:19:15;;;;;;;55.70;47.17;;;;;;;;;;5068377;28;20124;-63
2023/08/20 06:21:43;;;;;;;15.20;11.48;;;;;;;;;;5068225;28;20524;-63
2023/08/20 06:24:10;;;;;;;11.93;7.10;;;;;;;;;;5068460;28;20071;-64
2023/08/20 06:26:38;;;;;;;13.98;7.47;;;;;;;;;;5068878;28;20032;-63
2023/08/20 06:29:05;;;;;;;14.18;10.25;;;;;;;;;;5067662;28;20390;-64
2023/08/20 06:31:33;;;;;;;45.35;34.15;;;;;;;;;;5068019;28;20039;-63
2023/08/20 06:34:00;;;;;;;27.38;21.63;;;;;;;;;;5067879;28;20125;-63
2023/08/20 06:36:28;;;;;;;14.02;11.60;;;;;;;;;;5070716;28;20037;-62
2023/08/20 06:38:55;;;;;;;60.17;42.85;;;;;;;;;;5072017;28;20665;-62
2023/08/20 06:41:23;;;;;;;35.08;28.25;;;;;;;;;;5071924;28;20115;-63
2023/08/20 06:43:51;;;;;;;22.95;14.55;;;;;;;;;;5072958;28;20110;-62
2023/08/20 06:46:18;;;;;;;15.18;11.38;;;;;;;;;;5073211;28;20052;-61
2023/08/20 06:48:46;;;;;;;30.77;23.48;;;;;;;;;;5072952;28;20048;-61
2023/08/20 06:51:15;;;;;;;17.10;11.60;;;;;;;;;;5073107;28;20086;-61
2023/08/20 06:53:42;;;;;;;91.43;79.18;;;;;;;;;;5055307;28;20040;-64
2023/08/20 06:56:11;;;;;;;79.18;65.18;;;;;;;;;;5063456;28;20045;-65
2023/08/20 06:58:39;;;;;;;16.63;9.07;;;;;;;;;;5051414;28;20048;-64
2023/08/20 07:01:07;;;;;;;11.55;8.38;;;;;;;;;;5046920;28;20133;-64
2023/08/20 07:03:35;;;;;;;47.22;37.97;;;;;;;;;;5047131;28;20053;-64
2023/08/20 07:06:03;;;;;;;25.35;19.95;;;;;;;;;;5037658;28;20039;-65
2023/08/20 07:08:30;;;;;;;72.55;54.25;;;;;;;;;;5066639;28;20543;-65
2023/08/20 07:10:58;;;;;;;11.70;7.60;;;;;;;;;;5066515;28;20501;-63
2023/08/20 07:13:26;;;;;;;9.52;7.75;;;;;;;;;;5055235;28;20045;-65
2023/08/20 07:15:53;;;;;;;174.80;145.20;;;;;;;;;;5047835;28;20135;-65
2023/08/20 07:18:21;;;;;;;99.28;80.35;;;;;;;;;;5066649;28;20040;-64
2023/08/20 07:20:48;;;;;;;14.80;8.77;;;;;;;;;;5062952;28;20514;-66
2023/08/20 07:23:16;;;;;;;10.00;7.45;;;;;;;;;;5047338;28;20352;-64
2023/08/20 07:25:44;;;;;;;13.30;8.20;;;;;;;;;;5052281;28;20461;-66
2023/08/20 07:28:12;;;;;;;13.05;9.85;;;;;;;;;;5049283;28;20460;-66
2023/08/20 07:30:40;;;;;;;7.75;6.85;;;;;;;;;;5053136;28;20954;-65
2023/08/20 07:33:07;;;;;;;13.13;8.88;;;;;;;;;;5052754;28;20507;-64
2023/08/20 07:35:35;;;;;;;10.05;6.45;;;;;;;;;;5067176;28;20043;-65
2023/08/20 07:38:03;;;;;;;9.57;6.70;;;;;;;;;;5067247;28;20253;-64
2023/08/20 07:40:30;;;;;;;10.30;6.10;;;;;;;;;;5066626;28;20040;-64
2023/08/20 07:43:02;;;;;;;11.18;7.30;;;;;;;;;;5066920;28;20545;-65
2023/08/20 07:45:29;;;;;;;11.70;8.25;;;;;;;;;;5066612;28;20115;-66
2023/08/20 07:47:57;;;;;;;10.00;7.72;;;;;;;;;;5067032;28;20048;-66
2023/08/20 07:50:24;;;;;;;8.50;6.10;;;;;;;;;;5067045;28;20078;-66
2023/08/20 07:52:52;;;;;;;11.13;5.70;;;;;;;;;;5066845;28;20093;-66
2023/08/20 07:55:19;;;;;;;11.50;5.90;;;;;;;;;;5066723;28;20028;-65
2023/08/20 07:57:49;;;;;;;7.38;5.70;;;;;;;;;;5066587;28;20045;-64
2023/08/20 08:00:17;;;;;;;12.63;6.43;;;;;;;;;;5066878;28;20050;-66
2023/08/20 08:02:44;;;;;;;9.25;6.22;;;;;;;;;;5067137;28;20040;-66
2023/08/20 08:05:14;;;;;;;8.00;5.55;;;;;;;;;;5052687;28;20086;-66
2023/08/20 08:07:41;;;;;;;9.18;5.65;;;;;;;;;;5066521;28;20041;-66
2023/08/20 08:10:09;;;;;;;9.88;5.45;;;;;;;;;;5066703;28;20044;-66
2023/08/20 08:12:40;;;;;;;7.32;4.90;;;;;;;;;;5067065;28;20067;-66
2023/08/20 08:15:07;;;;;;;8.93;6.15;;;;;;;;;;5048653;28;20619;-66
2023/08/20 08:17:35;;;;;;;6.75;4.72;;;;;;;;;;5066661;28;20052;-66
2023/08/20 08:20:03;;;;;;;7.80;5.22;;;;;;;;;;5066367;28;20079;-66
2023/08/20 08:22:31;;;;;;;9.48;4.97;;;;;;;;;;5066555;28;20041;-66
2023/08/20 08:24:58;;;;;;;9.68;6.80;;;;;;;;;;5066494;28;20110;-65
2023/08/20 08:27:26;;;;;;;7.95;6.15;;;;;;;;;;5066230;28;20162;-66
2023/08/20 08:29:53;;;;;;;9.25;4.72;;;;;;;;;;5048963;28;20041;-67
2023/08/20 08:32:21;;;;;;;8.55;4.32;;;;;;;;;;5048665;28;20041;-66
2023/08/20 08:34:48;;;;;;;4.75;4.28;;;;;;;;;;5066435;28;20037;-66
2023/08/20 08:37:16;;;;;;;5.43;4.40;;;;;;;;;;5066514;28;20044;-66
2023/08/20 08:39:46;;;;;;;9.85;5.15;;;;;;;;;;5066399;28;20044;-66
2023/08/20 08:42:13;;;;;;;7.55;5.30;;;;;;;;;;5060891;28;20041;-66
2023/08/20 08:44:41;;;;;;;5.75;4.45;;;;;;;;;;5051365;28;20049;-66
2023/08/20 08:47:09;;;;;;;7.53;5.72;;;;;;;;;;5046528;28;20056;-66
2023/08/20 08:49:36;;;;;;;9.75;5.45;;;;;;;;;;5046379;28;20033;-65
2023/08/20 08:52:06;;;;;;;7.80;4.97;;;;;;;;;;5064794;28;20044;-65
2023/08/20 08:54:34;;;;;;;7.15;5.05;;;;;;;;;;5051880;28;20051;-66
2023/08/20 08:57:01;;;;;;;9.95;5.97;;;;;;;;;;5069473;28;20045;-65
2023/08/20 08:59:29;;;;;;;6.15;4.45;;;;;;;;;;5069721;28;20121;-65
2023/08/20 09:01:57;;;;;;;9.25;6.43;;;;;;;;;;5069875;28;20094;-65
2023/08/20 09:04:24;;;;;;;11.75;6.07;;;;;;;;;;5059508;28;20444;-67
2023/08/20 09:06:53;;;;;;;9.32;4.53;;;;;;;;;;5066278;28;20048;-65
2023/08/20 09:09:21;;;;;;;9.07;4.57;;;;;;;;;;5069399;28;20090;-66
2023/08/20 09:11:49;;;;;;;7.43;5.10;;;;;;;;;;5069643;28;20044;-64
2023/08/20 09:14:22;;;;;;;8.18;5.45;;;;;;;;;;5069551;28;20047;-66
2023/08/20 09:16:57;;;;;;;6.00;4.55;;;;;;;;;;5069462;28;20060;-65
2023/08/20 09:19:24;;;;;;;7.35;4.53;;;;;;;;;;5069281;28;20079;-64
2023/08/20 09:21:53;;;;;;;7.30;4.60;;;;;;;;;;5069322;28;20041;-64
2023/08/20 09:24:27;;;;;;;9.60;4.70;;;;;;;;;;5065986;28;20119;-65
2023/08/20 09:27:01;;;;;;;7.60;4.20;;;;;;;;;;5065016;28;20378;-67
2023/08/20 09:29:28;;;;;;;;;;;;;;;;;;5051618;28;20556;-65
2023/08/20 09:32:01;;;;;;;9.57;4.43;;;;;;;;;;5051861;28;19978;-65
2023/08/20 09:34:39;;;;;;;7.07;4.07;;;;;;;;;;5061569;28;20037;-66
2023/08/20 09:37:11;;;;;;;7.80;4.80;;;;;;;;;;5038843;28;20502;-65
2023/08/20 09:39:38;;;;;;;8.82;4.40;;;;;;;;;;5057530;28;20128;-65
2023/08/20 09:42:06;;;;;;;6.03;4.47;;;;;;;;;;5052269;28;20132;-65
2023/08/20 09:44:35;;;;;;;6.65;5.00;;;;;;;;;;5050109;28;20111;-66
2023/08/20 09:47:09;;;;;;;18.15;11.13;;;;;;;;;;5053591;28;20037;-65
2023/08/20 09:49:38;;;;;;;7.13;4.80;;;;;;;;;;5053261;28;20033;-66
2023/08/20 09:52:10;;;;;;;9.43;6.50;;;;;;;;;;5038789;28;20076;-65
2023/08/20 09:54:56;;;;;;;9.13;5.65;;;;;;;;;;5052757;28;20052;-67
2023/08/20 09:57:27;;;;;;;7.20;4.85;;;;;;;;;;5053804;28;20041;-64
2023/08/20 09:59:55;;;;;;;7.03;4.28;;;;;;;;;;5049694;28;20065;-66
2023/08/20 10:02:23;;;;;;;7.35;5.00;;;;;;;;;;5060110;28;20375;-67
2023/08/20 10:04:51;;;;;;;7.35;4.22;;;;;;;;;;5053496;28;20487;-66
2023/08/20 10:07:19;;;;;;;6.80;4.15;;;;;;;;;;5068290;28;20560;-66
2023/08/20 10:09:46;;;;;;;10.65;5.40;;;;;;;;;;5068292;28;20044;-65
2023/08/20 10:12:14;;;;;;;5.88;3.97;;;;;;;;;;5064021;28;20045;-66
2023/08/20 10:14:42;;;;;;;7.72;4.00;;;;;;;;;;5060687;28;20040;-67
2023/08/20 10:17:09;;;;;;;5.43;4.07;;;;;;;;;;5061347;28;20047;-66
2023/08/20 10:19:37;;;;;;;5.80;3.83;;;;;;;;;;5047660;28;20064;-67
2023/08/20 10:22:05;;;;;;;6.28;4.32;;;;;;;;;;5030542;28;20667;-66
2023/08/20 10:24:48;;;;;;;9.55;4.22;;;;;;;;;;5048513;28;20436;-66
2023/08/20 10:27:25;;;;;;;7.40;3.92;;;;;;;;;;5048283;28;20667;-66
2023/08/20 10:29:55;;;;;;;6.15;5.15;;;;;;;;;;5063367;28;20048;-66
2023/08/20 10:32:41;;;;;;;8.27;4.80;;;;;;;;;;5067465;28;20053;-67
2023/08/20 10:35:09;;;;;;;6.80;4.28;;;;;;;;;;5067731;28;20055;-65
2023/08/20 10:37:37;;;;;;;6.25;4.78;;;;;;;;;;5067959;28;20037;-65
2023/08/20 10:40:05;;;;;;;10.52;4.82;;;;;;;;;;5067764;28;20508;-67
2023/08/20 10:42:32;;;;;;;7.25;4.32;;;;;;;;;;5067925;28;20064;-65
2023/08/20 10:45:08;;;;;;;6.53;4.40;;;;;;;;;;5067356;28;20048;-67
2023/08/20 10:47:37;;;;;;;6.03;5.07;;;;;;;;;;5067582;28;20053;-66
2023/08/20 10:50:05;;;;;;;10.75;5.88;;;;;;;;;;5067780;28;20062;-66
2023/08/20 10:52:33;;;;;;;9.25;4.72;;;;;;;;;;5067278;28;20070;-65
2023/08/20 10:55:01;;;;;;;5.57;3.97;;;;;;;;;;5067408;28;20050;-66
2023/08/20 10:57:33;;;;;;;6.72;4.43;;;;;;;;;;5060389;28;20490;-66
2023/08/20 11:00:09;;;;;;;7.13;4.22;;;;;;;;;;5060203;28;20589;-66
2023/08/20 11:02:36;;;;;;;5.70;4.25;;;;;;;;;;5066943;28;20071;-66
2023/08/20 11:05:04;;;;;;;6.55;3.95;;;;;;;;;;5053809;28;20055;-65
2023/08/20 11:07:34;;;;;;;4.57;3.63;;;;;;;;;;5063403;28;20044;-67
2023/08/20 11:10:05;;;;;;;6.10;4.10;;;;;;;;;;5056729;28;20042;-65
2023/08/20 11:12:33;;;;;;;5.95;4.10;;;;;;;;;;5067254;28;20041;-64
2023/08/20 11:15:02;;;;;;;8.13;4.07;;;;;;;;;;5063738;28;20086;-65
2023/08/20 11:17:30;;;;;;;7.35;4.25;;;;;;;;;;5049493;28;20072;-65
2023/08/20 11:19:57;;;;;;;9.40;4.20;;;;;;;;;;5066914;28;20874;-66
2023/08/20 11:22:35;;;;;;;6.82;4.13;;;;;;;;;;5067405;28;20047;-66
2023/08/20 11:25:04;;;;;;;5.43;4.38;;;;;;;;;;5066907;28;20551;-67
2023/08/20 11:27:31;;;;;;;9.02;4.28;;;;;;;;;;5067183;28;20036;-67
2023/08/20 11:30:00;;;;;;;6.93;3.90;;;;;;;;;;5067121;28;20094;-66
2023/08/20 11:32:27;;;;;;;5.88;3.45;;;;;;;;;;5054850;28;20045;-66
2023/08/20 11:34:55;;;;;;;6.63;3.80;;;;;;;;;;5052290;28;20087;-65
2023/08/20 11:37:22;;;;;;;8.55;4.20;;;;;;;;;;5033412;28;20076;-66
2023/08/20 11:39:50;;;;;;;5.05;3.80;;;;;;;;;;5050439;28;20045;-67
2023/08/20 11:42:18;;;;;;;8.13;3.90;;;;;;;;;;5053950;28;20486;-68
2023/08/20 11:44:48;;;;;;;5.63;3.47;;;;;;;;;;5062085;28;20141;-66
2023/08/20 11:47:16;;;;;;;6.32;3.97;;;;;;;;;;5066714;28;20094;-66
2023/08/20 11:49:44;;;;;;;4.68;3.75;;;;;;;;;;5066681;28;20425;-68
2023/08/20 11:52:13;;;;;;;6.00;3.50;;;;;;;;;;5045721;28;20057;-67
2023/08/20 11:54:42;;;;;;;6.20;3.88;;;;;;;;;;5052607;28;20056;-67
2023/08/20 11:57:10;;;;;;;7.50;4.57;;;;;;;;;;5033808;28;20054;-67
2023/08/20 11:59:38;;;;;;;7.47;6.65;;;;;;;;;;5050850;28;20039;-67
2023/08/20 12:02:06;;;;;;;5.90;4.30;;;;;;;;;;5046370;28;20428;-68
2023/08/20 12:04:33;;;;;;;6.50;3.70;;;;;;;;;;5036431;28;20410;-68
2023/08/20 12:07:07;;;;;;;6.90;4.07;;;;;;;;;;5052164;28;20403;-67
2023/08/20 12:09:35;;;;;;;;;;;;;;;;;;5050410;28;20071;-67
2023/08/20 12:12:02;;;;;;;5.13;3.50;;;;;;;;;;5037435;28;19931;-67
2023/08/20 12:14:30;;;;;;;4.97;3.80;;;;;;;;;;5045904;28;20041;-67
2023/08/20 12:16:58;;;;;;;7.30;4.28;;;;;;;;;;5046194;28;20041;-68
2023/08/20 12:19:25;;;;;;;7.13;4.35;;;;;;;;;;5046168;28;20049;-66
2023/08/20 12:21:53;;;;;;;5.63;4.40;;;;;;;;;;5047995;28;20265;-66
2023/08/20 12:24:21;;;;;;;8.25;4.28;;;;;;;;;;5051181;28;20040;-66
2023/08/20 12:26:48;;;;;;;8.00;4.13;;;;;;;;;;5054661;28;20513;-66
2023/08/20 12:29:16;;;;;;;7.22;4.22;;;;;;;;;;5052533;28;20110;-66
2023/08/20 12:31:44;;;;;;;4.28;3.80;;;;;;;;;;5052226;28;20063;-65
2023/08/20 12:34:11;;;;;;;5.75;4.18;;;;;;;;;;5049962;28;20083;-65
2023/08/20 12:36:39;;;;;;;7.93;4.13;;;;;;;;;;5050078;28;20048;-66
2023/08/20 12:39:06;;;;;;;7.18;3.85;;;;;;;;;;5049820;28;20040;-66
2023/08/20 12:41:36;;;;;;;5.63;4.07;;;;;;;;;;5049751;28;20120;-66
2023/08/20 12:44:03;;;;;;;5.78;4.13;;;;;;;;;;5063414;28;20440;-67
2023/08/20 12:46:31;;;;;;;8.00;4.40;;;;;;;;;;5073574;28;20036;-67
2023/08/20 12:48:59;;;;;;;7.07;5.00;;;;;;;;;;5055869;28;20036;-67
2023/08/20 12:51:27;;;;;;;10.27;5.07;;;;;;;;;;5067136;28;20407;-68
2023/08/20 12:53:54;;;;;;;8.15;4.55;;;;;;;;;;5061729;28;20045;-67
2023/08/20 12:56:22;;;;;;;8.30;5.45;;;;;;;;;;5062609;28;20032;-68
2023/08/20 12:58:49;;;;;;;7.30;4.45;;;;;;;;;;5064502;28;20083;-65
2023/08/20 13:01:19;;;;;;;7.28;5.32;;;;;;;;;;5057434;28;20495;-69
2023/08/20 13:03:47;;;;;;;8.32;5.47;;;;;;;;;;5058564;28;20124;-68
2023/08/20 13:06:16;;;;;;;7.50;5.47;;;;;;;;;;5064326;28;20040;-68
2023/08/20 13:08:44;;;;;;;7.68;5.20;;;;;;;;;;5046782;28;20044;-67
2023/08/20 13:11:14;;;;;;;7.60;5.78;;;;;;;;;;5063729;28;20072;-68
2023/08/20 13:13:41;;;;;;;8.18;4.80;;;;;;;;;;5066213;28;20079;-67
2023/08/20 13:16:09;;;;;;;7.82;4.50;;;;;;;;;;5054772;28;20120;-67
2023/08/20 13:18:37;;;;;;;8.68;6.88;;;;;;;;;;5054682;28;20064;-67
2023/08/20 13:21:04;;;;;;;12.10;8.57;;;;;;;;;;5054516;28;20065;-68
2023/08/20 13:23:32;;;;;;;6.80;5.25;;;;;;;;;;5054632;28;20041;-67
2023/08/20 13:26:00;;;;;;;6.63;5.00;;;;;;;;;;5058260;28;20118;-67
2023/08/20 13:28:27;;;;;;;8.88;5.78;;;;;;;;;;5074178;28;20068;-67
2023/08/20 13:30:55;;;;;;;12.65;10.00;;;;;;;;;;5073979;28;20070;-67
2023/08/20 13:33:23;;;;;;;12.65;10.23;;;;;;;;;;5061681;28;20024;-67
2023/08/20 13:35:52;;;;;;;9.23;5.05;;;;;;;;;;5063470;28;20495;-66
2023/08/20 13:38:22;;;;;;;9.38;4.47;;;;;;;;;;5053492;28;20044;-67
2023/08/20 13:40:49;;;;;;;8.70;6.07;;;;;;;;;;5054248;28;20041;-67
2023/08/20 13:43:17;;;;;;;8.05;5.00;;;;;;;;;;5054082;28;20095;-66
2023/08/20 13:45:44;;;;;;;6.20;4.18;;;;;;;;;;5057931;28;20040;-67
2023/08/20 13:48:12;;;;;;;10.23;7.20;;;;;;;;;;5064345;28;20029;-67
2023/08/20 13:50:40;;;;;;;9.65;5.05;;;;;;;;;;5062689;28;20053;-67
2023/08/20 13:53:07;;;;;;;8.32;5.30;;;;;;;;;;5056380;28;20396;-67
2023/08/20 13:55:35;;;;;;;8.88;6.22;;;;;;;;;;5057455;28;20036;-67
2023/08/20 13:58:02;;;;;;;8.43;5.70;;;;;;;;;;5053689;28;20040;-67
2023/08/20 14:00:30;;;;;;;7.05;4.70;;;;;;;;;;5058876;28;20056;-67
2023/08/20 14:02:58;;;;;;;6.75;4.80;;;;;;;;;;5048628;28;20045;-65
2023/08/20 14:05:26;;;;;;;9.48;5.38;;;;;;;;;;5049786;28;20070;-65
2023/08/20 14:07:53;;;;;;;6.60;5.50;;;;;;;;;;5067649;28;20044;-67
2023/08/20 14:10:21;;;;;;;10.02;6.32;;;;;;;;;;5067584;28;20032;-65
2023/08/20 14:12:49;;;;;;;6.70;4.90;;;;;;;;;;5065314;28;20505;-65
2023/08/20 14:15:17;;;;;;;9.60;8.35;;;;;;;;;;5047609;28;20467;-65
2023/08/20 14:17:44;;;;;;;7.72;5.53;;;;;;;;;;5054633;28;20147;-67
2023/08/20 14:20:13;;;;;;;9.00;5.65;;;;;;;;;;5038780;28;20086;-66
2023/08/20 14:22:41;;;;;;;12.00;5.50;;;;;;;;;;5054367;28;20068;-65
2023/08/20 14:25:09;;;;;;;10.43;6.65;;;;;;;;;;5065284;28;20044;-65
2023/08/20 14:27:37;;;;;;;9.93;5.97;;;;;;;;;;5067995;28;20049;-65
2023/08/20 14:30:05;;;;;;;10.40;5.70;;;;;;;;;;5067635;28;20079;-65
2023/08/20 14:32:33;;;;;;;10.02;5.55;;;;;;;;;;5057128;28;20040;-67
2023/08/20 14:35:04;;;;;;;8.40;5.18;;;;;;;;;;5053848;28;20130;-65
2023/08/20 14:37:31;;;;;;;6.30;4.88;;;;;;;;;;5049053;28;20145;-65
2023/08/20 14:39:59;;;;;;;8.73;5.28;;;;;;;;;;5047586;28;20072;-65
2023/08/20 14:42:26;;;;;;;7.25;5.15;;;;;;;;;;5047744;28;20091;-66
2023/08/20 14:44:54;;;;;;;8.77;5.10;;;;;;;;;;5049263;28;20075;-67